Time;durP1;ratioP1;P1;durP2;ratioP2;P2;SDS_P1;SDS_P2;PMS_P1;PMS_P2;Temp;Humidity;BMP_temperature;BMP_pressure;BME280_temperature;BME280_humidity;BME280_pressure;Samples;Min_cycle;Max_cycle;Signal;HPM_P1;HPM_P2
2023/05/18 00:01:33;;;;;;;12.80;8.57;;;5.80;99.90;;;;;;5133835;27;20447;-89
2023/05/18 00:04:00;;;;;;;9.35;7.45;;;5.70;99.90;;;;;;5132920;27;20443;-89
2023/05/18 00:06:27;;;;;;;21.40;8.97;;;5.80;99.90;;;;;;5133580;27;20465;-89
2023/05/18 00:08:56;;;;;;;13.83;10.00;;;5.80;99.90;;;;;;5133118;27;20448;-88
2023/05/18 00:11:23;;;;;;;19.57;16.47;;;5.80;99.90;;;;;;5114973;27;20447;-88
2023/05/18 00:13:50;;;;;;;40.77;37.87;;;5.70;99.90;;;;;;5133513;27;20447;-88
2023/05/18 00:16:17;;;;;;;36.17;33.83;;;5.60;99.90;;;;;;5133618;28;20943;-89
2023/05/18 00:18:45;;;;;;;88.47;84.63;;;5.60;99.90;;;;;;5133469;28;20468;-89
2023/05/18 00:21:12;;;;;;;125.37;120.63;;;5.40;99.90;;;;;;5133045;28;20448;-88
2023/05/18 00:23:39;;;;;;;178.03;171.63;;;5.30;99.90;;;;;;5133350;28;20492;-89
2023/05/18 00:26:07;;;;;;;243.87;235.27;;;5.20;99.90;;;;;;5132900;28;20464;-89
2023/05/18 00:28:34;;;;;;;265.27;256.67;;;5.20;99.90;;;;;;5133292;28;20472;-89
2023/05/18 00:31:01;;;;;;;265.75;256.67;;;5.10;99.90;;;;;;5133096;28;20520;-89
2023/05/18 00:33:28;;;;;;;382.53;367.50;;;5.00;99.90;;;;;;5132724;28;20259;-89
2023/05/18 00:35:58;;;;;;;384.90;371.33;;;4.90;99.90;;;;;;5132864;28;20450;-89
2023/05/18 00:38:25;;;;;;;423.03;407.37;;;4.90;99.90;;;;;;5133274;28;20999;-89
2023/05/18 00:40:52;;;;;;;532.97;511.53;;;4.80;99.90;;;;;;5133355;28;20555;-89
2023/05/18 00:43:22;;;;;;;581.93;556.93;;;4.80;99.90;;;;;;5132972;28;20443;-89
2023/05/18 00:45:49;;;;;;;617.10;589.00;;;4.70;99.90;;;;;;5133114;28;20456;-88
2023/05/18 00:48:16;;;;;;;659.40;627.33;;;4.70;99.90;;;;;;5133354;28;20492;-88
2023/05/18 00:50:43;;;;;;;721.77;681.60;;;4.50;99.90;;;;;;5133156;28;20447;-89
2023/05/18 00:53:10;;;;;;;747.20;705.30;;;4.50;99.90;;;;;;5133035;28;21015;-89
2023/05/18 00:55:39;;;;;;;770.13;725.27;;;4.50;99.90;;;;;;5133067;28;20823;-89
2023/05/18 00:58:07;;;;;;;753.50;709.97;;;4.50;99.90;;;;;;5133075;28;20485;-89
2023/05/18 01:00:36;;;;;;;777.77;731.77;;;4.40;99.90;;;;;;5132507;28;20451;-89
2023/05/18 01:03:04;;;;;;;766.63;722.90;;;4.40;99.90;;;;;;5114701;28;21231;-89
2023/05/18 01:05:32;;;;;;;787.20;741.43;;;4.30;99.90;;;;;;5132882;28;20219;-90
2023/05/18 01:07:59;;;;;;;778.10;731.40;;;4.20;99.90;;;;;;5136753;27;20490;-89
2023/05/18 01:10:26;;;;;;;794.30;746.53;;;4.20;99.90;;;;;;5136971;27;20491;-89
2023/05/18 01:12:59;;;;;;;790.87;743.27;;;4.10;99.90;;;;;;5137299;27;20526;-89
2023/05/18 01:15:32;;;;;;;790.03;742.83;;;4.20;99.90;;;;;;5136687;27;20447;-88
2023/05/18 01:18:13;;;;;;;778.80;732.53;;;4.10;99.90;;;;;;5136678;27;20472;-88
2023/05/18 01:20:47;;;;;;;755.87;711.53;;;4.00;99.90;;;;;;5136883;27;20458;-89
2023/05/18 01:23:54;;;;;;;739.00;696.13;;;4.10;99.90;;;;;;5136900;27;20452;-89
2023/05/18 01:26:28;;;;;;;757.95;716.00;;;4.10;99.90;;;;;;5128407;27;20471;-89
2023/05/18 01:28:58;;;;;;;782.07;735.77;;;4.10;99.90;;;;;;5119407;27;20240;-89
2023/05/18 01:31:25;;;;;;;811.20;761.40;;;4.10;99.90;;;;;;5136487;27;20444;-89
2023/05/18 01:33:54;;;;;;;835.87;783.27;;;4.00;99.90;;;;;;5118601;27;20447;-89
2023/05/18 01:36:22;;;;;;;841.80;790.60;;;4.00;99.90;;;;;;5118493;27;20967;-89
2023/05/18 01:38:50;;;;;;;835.10;785.10;;;4.00;99.90;;;;;;5118041;27;20467;-89
2023/05/18 01:41:21;;;;;;;824.00;775.17;;;4.00;99.90;;;;;;5136334;27;20455;-89
2023/05/18 01:44:00;;;;;;;816.10;769.20;;;3.90;99.90;;;;;;5136462;27;20603;-89
2023/05/18 01:46:35;;;;;;;829.43;780.17;;;3.90;99.90;;;;;;5136230;27;20471;-89
2023/05/18 01:49:09;;;;;;;855.90;802.63;;;3.90;99.90;;;;;;5136413;27;20869;-89
2023/05/18 01:51:44;;;;;;;847.15;795.53;;;3.80;99.90;;;;;;5136024;27;20447;-88
2023/05/18 01:54:13;;;;;;;842.03;790.77;;;3.80;99.90;;;;;;5116155;28;20475;-88
2023/05/18 01:56:40;;;;;;;852.15;799.92;;;3.80;99.90;;;;;;5135648;27;20447;-89
2023/05/18 01:59:11;;;;;;;859.70;806.00;;;3.70;99.90;;;;;;5136087;27;20195;-88
2023/05/18 02:01:38;;;;;;;870.63;815.27;;;3.80;99.90;;;;;;5135683;27;20485;-88
2023/05/18 02:04:09;;;;;;;887.20;829.20;;;3.80;99.90;;;;;;5135887;27;20519;-89
2023/05/18 02:06:36;;;;;;;865.15;810.25;;;3.80;99.90;;;;;;5135615;27;20507;-89
2023/05/18 02:09:05;;;;;;;862.60;807.23;;;3.70;99.90;;;;;;5135781;27;20205;-89
2023/05/18 02:11:32;;;;;;;847.42;794.30;;;3.70;99.90;;;;;;5135628;27;20452;-90
2023/05/18 02:14:00;;;;;;;846.87;794.20;;;3.70;99.90;;;;;;5135423;27;20237;-89
2023/05/18 02:16:29;;;;;;;844.57;791.07;;;3.60;99.90;;;;;;5135756;27;20480;-89
2023/05/18 02:18:56;;;;;;;823.83;771.70;;;3.60;99.90;;;;;;5134752;27;20456;-89
2023/05/18 02:21:24;;;;;;;837.53;783.37;;;3.40;99.90;;;;;;5135198;27;20444;-88
2023/05/18 02:23:51;;;;;;;852.97;795.60;;;3.40;99.90;;;;;;5135430;27;20456;-90
2023/05/18 02:26:18;;;;;;;858.87;798.40;;;3.40;99.90;;;;;;5114624;28;20552;-89
2023/05/18 02:28:45;;;;;;;847.13;786.23;;;3.60;99.90;;;;;;5114609;28;20469;-89
2023/05/18 02:31:12;;;;;;;846.53;785.20;;;3.40;99.90;;;;;;5114707;28;20525;-89
2023/05/18 02:33:41;;;;;;;852.33;791.33;;;3.40;99.90;;;;;;5114444;28;20453;-89
2023/05/18 02:36:09;;;;;;;855.13;794.67;;;3.50;99.90;;;;;;5134340;27;20451;-89
2023/05/18 02:38:38;;;;;;;851.47;789.83;;;3.30;99.90;;;;;;5134749;27;20542;-88
2023/05/18 02:41:05;;;;;;;847.40;785.53;;;3.30;99.90;;;;;;5134963;27;20463;-89
2023/05/18 02:43:33;;;;;;;833.35;774.38;;;3.30;99.90;;;;;;5135193;27;20448;-88
2023/05/18 02:46:00;;;;;;;842.67;784.45;;;3.20;99.90;;;;;;5116583;27;20291;-89
2023/05/18 02:48:27;;;;;;;840.93;781.53;;;3.20;99.90;;;;;;5134941;27;20301;-89
2023/05/18 02:50:55;;;;;;;843.37;783.13;;;3.20;99.90;;;;;;5134822;27;20454;-89
2023/05/18 02:53:22;;;;;;;840.37;780.60;;;3.10;99.90;;;;;;5134176;27;20465;-89
2023/05/18 02:55:56;;;;;;;838.50;778.80;;;3.10;99.90;;;;;;5134501;27;20824;-88
2023/05/18 02:58:24;;;;;;;837.53;776.37;;;3.10;99.90;;;;;;5134622;27;20546;-89
2023/05/18 03:00:58;;;;;;;828.45;768.10;;;3.10;99.90;;;;;;5116108;27;20447;-89
2023/05/18 03:03:27;;;;;;;833.43;772.80;;;3.10;99.90;;;;;;5134788;27;20479;-89
2023/05/18 03:05:55;;;;;;;843.37;780.40;;;3.10;99.90;;;;;;5134263;27;20975;-89
2023/05/18 03:08:25;;;;;;;846.50;783.00;;;3.10;99.90;;;;;;5134326;27;20894;-88
2023/05/18 03:10:52;;;;;;;836.42;774.63;;;3.00;99.90;;;;;;5134601;27;20873;-89
2023/05/18 03:13:19;;;;;;;838.30;776.13;;;3.10;99.90;;;;;;5134504;27;20194;-88
2023/05/18 03:15:48;;;;;;;840.90;778.03;;;3.10;99.90;;;;;;5134060;27;20451;-88
2023/05/18 03:18:15;;;;;;;842.17;777.20;;;3.10;99.90;;;;;;5133946;27;20495;-89
2023/05/18 03:20:43;;;;;;;839.63;772.30;;;3.00;99.90;;;;;;5133994;27;20452;-89
2023/05/18 03:23:12;;;;;;;845.50;778.03;;;3.10;99.90;;;;;;5134114;27;20451;-88
2023/05/18 03:25:39;;;;;;;859.53;792.20;;;3.30;99.90;;;;;;5133402;27;20978;-88
2023/05/18 03:28:10;;;;;;;867.93;800.57;;;3.20;99.90;;;;;;5133201;27;20486;-88
2023/05/18 03:30:37;;;;;;;856.00;788.40;;;3.20;99.90;;;;;;5131703;27;20479;-86
2023/05/18 03:33:04;;;;;;;852.10;785.30;;;3.30;99.90;;;;;;5132632;27;20547;-88
2023/05/18 03:35:32;;;;;;;863.47;796.67;;;3.30;99.90;;;;;;5126696;27;20449;-90
2023/05/18 03:37:59;;;;;;;861.63;791.57;;;3.30;99.90;;;;;;5130069;27;20530;-90
2023/05/18 03:40:28;;;;;;;859.33;788.23;;;3.20;99.90;;;;;;5135145;27;20456;-89
2023/05/18 03:42:55;;;;;;;852.17;781.10;;;3.30;99.90;;;;;;5133255;27;20483;-87
2023/05/18 03:45:23;;;;;;;852.60;779.73;;;3.20;99.90;;;;;;5133232;27;20451;-89
2023/05/18 03:47:51;;;;;;;844.90;773.10;;;3.20;99.90;;;;;;5133321;27;20482;-89
2023/05/18 03:50:18;;;;;;;836.57;766.80;;;3.20;99.90;;;;;;5133739;27;20201;-89
2023/05/18 03:52:45;;;;;;;835.47;765.03;;;3.30;99.90;;;;;;5133805;27;20451;-89
2023/05/18 03:55:12;;;;;;;825.53;755.70;;;3.30;99.90;;;;;;5133076;27;20447;-90
2023/05/18 03:57:40;;;;;;;829.70;759.90;;;3.30;99.90;;;;;;5134879;27;20476;-91
2023/05/18 04:00:11;;;;;;;822.97;752.20;;;3.30;99.90;;;;;;5133048;27;20447;-88
2023/05/18 04:02:38;;;;;;;829.80;761.10;;;3.30;99.90;;;;;;5109323;27;20786;-90
2023/05/18 04:05:06;;;;;;;828.87;759.50;;;3.40;99.90;;;;;;5133992;27;20472;-90
2023/05/18 04:07:33;;;;;;;830.17;759.93;;;3.40;99.90;;;;;;5134226;27;20558;-86
2023/05/18 04:10:07;;;;;;;827.63;756.93;;;3.50;99.90;;;;;;5115513;28;20537;-89
2023/05/18 04:12:34;;;;;;;832.17;761.33;;;3.50;99.90;;;;;;5135619;27;20439;-88
2023/05/18 04:15:03;;;;;;;828.47;756.73;;;3.60;99.90;;;;;;5135518;27;20959;-83
2023/05/18 04:17:34;;;;;;;830.03;757.20;;;3.60;99.90;;;;;;5135382;27;20463;-88
2023/05/18 04:20:12;;;;;;;821.60;750.17;;;3.60;99.90;;;;;;5134941;28;20440;-89
2023/05/18 04:22:44;;;;;;;824.42;754.50;;;3.70;99.90;;;;;;5133518;28;20459;-90
2023/05/18 04:25:13;;;;;;;822.23;751.73;;;3.80;99.90;;;;;;5133958;28;20509;-90
2023/05/18 04:27:42;;;;;;;821.27;750.63;;;3.90;99.90;;;;;;5133954;28;20471;-90
2023/05/18 04:30:11;;;;;;;822.33;750.83;;;4.00;99.90;;;;;;5133824;28;20454;-90
2023/05/18 04:32:41;;;;;;;824.07;753.10;;;4.10;99.90;;;;;;5115036;28;20469;-90
2023/05/18 04:35:09;;;;;;;820.70;750.33;;;4.10;99.90;;;;;;5132726;28;20447;-90
2023/05/18 04:37:39;;;;;;;828.10;757.13;;;4.30;99.90;;;;;;5132674;28;20497;-89
2023/05/18 04:40:07;;;;;;;832.73;762.10;;;4.40;99.90;;;;;;5132432;28;20815;-88
2023/05/18 04:42:35;;;;;;;823.73;753.90;;;4.40;99.90;;;;;;5116906;27;20451;-89
2023/05/18 04:45:04;;;;;;;822.33;753.10;;;4.50;99.90;;;;;;5136957;27;20871;-88
2023/05/18 04:47:33;;;;;;;826.30;758.50;;;4.60;99.90;;;;;;5136130;27;20468;-89
2023/05/18 04:50:02;;;;;;;833.40;766.43;;;4.80;99.90;;;;;;5118161;27;20512;-89
2023/05/18 04:52:30;;;;;;;831.40;765.60;;;4.80;99.90;;;;;;5136763;27;20832;-90
2023/05/18 04:54:57;;;;;;;829.53;764.17;;;4.90;99.90;;;;;;5136807;27;20454;-88
2023/05/18 04:57:26;;;;;;;843.50;776.13;;;5.00;99.90;;;;;;5135904;27;20487;-88
2023/05/18 04:59:53;;;;;;;837.47;771.20;;;5.10;99.90;;;;;;5136744;27;20498;-88
2023/05/18 05:02:20;;;;;;;843.20;776.10;;;5.30;99.90;;;;;;5135721;27;20931;-89
2023/05/18 05:04:48;;;;;;;838.30;774.87;;;5.40;99.90;;;;;;5136702;27;20447;-89
2023/05/18 05:07:20;;;;;;;842.43;775.83;;;5.50;99.90;;;;;;5136340;27;20907;-89
2023/05/18 05:09:58;;;;;;;832.33;771.33;;;5.60;99.90;;;;;;5136236;27;20448;-89
2023/05/18 05:12:25;;;;;;;848.10;783.10;;;5.70;99.90;;;;;;5135881;27;20447;-90
2023/05/18 05:14:52;;;;;;;847.33;784.93;;;5.90;99.90;;;;;;5136302;27;20476;-90
2023/05/18 05:17:19;;;;;;;839.63;781.30;;;6.10;99.90;;;;;;5135221;27;20692;-89
2023/05/18 05:19:53;;;;;;;828.17;774.30;;;6.20;99.90;;;;;;5134335;27;20190;-89
2023/05/18 05:22:21;;;;;;;808.03;759.90;;;6.30;99.90;;;;;;5135706;27;20470;-89
2023/05/18 05:24:47;;;;;;;620.43;592.40;;;6.50;99.90;;;;;;5135630;27;20499;-91
2023/05/18 05:27:16;;;;;;;355.90;342.97;;;6.70;99.90;;;;;;5118069;27;20486;-90
2023/05/18 05:29:44;;;;;;;201.47;194.03;;;7.20;99.90;;;;;;5135122;27;20497;-90
2023/05/18 05:32:11;;;;;;;24.10;22.13;;;7.50;99.90;;;;;;5117752;27;20451;-89
2023/05/18 05:34:45;;;;;;;18.20;12.63;;;8.00;99.90;;;;;;5136351;27;20649;-90
2023/05/18 05:37:15;;;;;;;13.77;6.47;;;8.20;99.90;;;;;;5136068;27;20468;-90
2023/05/18 05:39:42;;;;;;;9.47;4.97;;;8.60;99.90;;;;;;5137273;27;20523;-92
2023/05/18 05:42:09;;;;;;;11.43;5.57;;;9.20;99.90;;;;;;5118526;27;20484;-90
2023/05/18 05:44:38;;;;;;;10.70;4.77;;;9.60;99.90;;;;;;5136156;27;20459;-91
2023/05/18 05:47:06;;;;;;;14.00;5.70;;;9.80;99.90;;;;;;5118629;27;20470;-90
2023/05/18 05:49:36;;;;;;;7.90;4.67;;;9.90;99.90;;;;;;5136235;27;20459;-91
2023/05/18 05:52:03;;;;;;;13.60;5.17;;;10.00;99.70;;;;;;5135318;27;20538;-90
2023/05/18 05:54:32;;;;;;;13.07;6.30;;;10.50;99.90;;;;;;5128618;27;20487;-92
2023/05/18 05:56:59;;;;;;;11.37;5.37;;;10.40;98.50;;;;;;5115651;28;20481;-90
2023/05/18 05:59:26;;;;;;;13.83;4.70;;;10.40;99.00;;;;;;5127484;27;20530;-90
2023/05/18 06:01:53;;;;;;;8.47;4.33;;;10.40;96.10;;;;;;5135516;27;20535;-89
2023/05/18 06:04:21;;;;;;;11.13;4.50;;;10.50;95.80;;;;;;5135042;27;20524;-90
2023/05/18 06:07:00;;;;;;;14.03;5.03;;;10.80;95.20;;;;;;5133433;27;20472;-90
2023/05/18 06:09:27;;;;;;;13.40;4.90;;;10.80;95.90;;;;;;5134123;27;20486;-90
2023/05/18 06:11:56;;;;;;;8.27;4.37;;;10.80;94.60;;;;;;5134896;27;20443;-90
2023/05/18 06:14:23;;;;;;;11.82;4.80;;;11.00;93.70;;;;;;5135233;27;20452;-90
2023/05/18 06:16:50;;;;;;;10.67;4.70;;;11.10;93.40;;;;;;5134460;27;20689;-90
2023/05/18 06:19:17;;;;;;;12.60;4.60;;;11.30;90.90;;;;;;5135835;27;20457;-90
2023/05/18 06:21:47;;;;;;;11.43;5.23;;;11.50;92.30;;;;;;5134607;27;20447;-91
2023/05/18 06:24:14;;;;;;;14.23;4.50;;;11.60;91.60;;;;;;5136166;27;20448;-91
2023/05/18 06:26:55;;;;;;;8.50;4.20;;;11.50;91.40;;;;;;5135171;27;20509;-91
2023/05/18 06:29:23;;;;;;;15.13;4.17;;;11.90;91.10;;;;;;5134067;27;20536;-89
2023/05/18 06:34:25;;;;;;;11.30;4.38;;;12.40;86.80;;;;;;5088598;22;20453;-63
2023/05/18 06:36:51;;;;;;;8.40;4.40;;;12.70;84.40;;;;;;5072233;28;20190;-63
2023/05/18 06:39:18;;;;;;;10.87;4.03;;;13.40;80.00;;;;;;5073207;28;20453;-63
2023/05/18 06:41:45;;;;;;;10.40;4.47;;;13.40;76.50;;;;;;5073327;28;20460;-63
2023/05/18 06:44:12;;;;;;;12.20;4.13;;;13.40;75.00;;;;;;5073428;28;20446;-63
2023/05/18 06:46:40;;;;;;;7.80;3.23;;;13.50;72.40;;;;;;5072846;28;20464;-63
2023/05/18 06:49:07;;;;;;;9.27;4.43;;;13.50;73.90;;;;;;5073124;28;20482;-64
2023/05/18 06:51:34;;;;;;;10.63;4.00;;;13.10;71.90;;;;;;5072785;28;20940;-63
2023/05/18 06:54:01;;;;;;;11.00;3.60;;;13.10;74.20;;;;;;5073183;28;20461;-63
2023/05/18 06:56:28;;;;;;;12.20;3.90;;;13.30;74.40;;;;;;5072911;28;20451;-63
2023/05/18 06:58:55;;;;;;;17.10;4.00;;;13.20;75.10;;;;;;5072818;28;20453;-63
2023/05/18 07:01:22;;;;;;;11.27;4.03;;;13.40;73.60;;;;;;5072380;28;20454;-63
2023/05/18 07:03:50;;;;;;;10.93;4.37;;;13.50;76.20;;;;;;5072790;28;20542;-63
2023/05/18 07:06:17;;;;;;;15.27;5.93;;;13.40;74.00;;;;;;5072888;28;20538;-63
2023/05/18 07:08:46;;;;;;;10.20;3.77;;;13.70;72.40;;;;;;5072843;28;20500;-63
2023/05/18 07:11:12;;;;;;;9.70;5.10;;;14.00;72.20;;;;;;5072514;28;20459;-64
2023/05/18 07:13:39;;;;;;;10.53;5.47;;;14.10;69.60;;;;;;5072780;28;20450;-63
2023/05/18 07:16:06;;;;;;;12.57;4.10;;;14.30;66.70;;;;;;5072512;28;20944;-63
2023/05/18 07:18:33;;;;;;;8.37;3.73;;;14.10;64.80;;;;;;5072713;28;20447;-63
2023/05/18 07:21:01;;;;;;;10.10;3.67;;;14.40;65.00;;;;;;5072542;28;20457;-64
2023/05/18 07:23:28;;;;;;;11.77;4.77;;;14.70;68.20;;;;;;5072331;28;20938;-63
2023/05/18 07:25:55;;;;;;;12.17;3.57;;;14.60;62.40;;;;;;5072431;28;20529;-63
2023/05/18 07:28:22;;;;;;;10.07;3.92;;;14.90;61.90;;;;;;5072621;28;20817;-63
2023/05/18 07:30:48;;;;;;;10.30;3.67;;;14.90;59.70;;;;;;5071598;28;20196;-63
2023/05/18 07:33:15;;;;;;;11.70;4.33;;;14.70;57.60;;;;;;5072464;28;20493;-63
2023/05/18 07:35:42;;;;;;;8.77;3.67;;;14.40;61.00;;;;;;5072289;28;20788;-64
2023/05/18 07:38:10;;;;;;;11.33;4.20;;;14.10;63.70;;;;;;5072447;28;20880;-63
2023/05/18 07:40:37;;;;;;;12.93;3.23;;;14.20;62.50;;;;;;5071014;28;20452;-63
2023/05/18 07:43:04;;;;;;;8.67;3.90;;;14.20;58.00;;;;;;5072478;28;20455;-63
2023/05/18 07:45:32;;;;;;;8.57;3.90;;;14.60;61.50;;;;;;5072664;28;20533;-63
2023/05/18 07:48:00;;;;;;;15.27;3.58;;;14.30;56.50;;;;;;5072280;28;20479;-63
2023/05/18 07:50:28;;;;;;;9.23;3.40;;;14.30;60.80;;;;;;5072343;28;20196;-63
2023/05/18 07:52:55;;;;;;;10.30;4.47;;;14.20;59.30;;;;;;5072548;28;20194;-63
2023/05/18 07:55:23;;;;;;;11.67;4.33;;;14.20;56.50;;;;;;5072346;28;20927;-64
2023/05/18 07:57:50;;;;;;;9.25;3.78;;;14.20;56.50;;;;;;5070720;28;20450;-64
2023/05/18 08:00:19;;;;;;;8.33;3.93;;;14.50;51.40;;;;;;5072222;28;20450;-64
2023/05/18 08:02:46;;;;;;;14.30;4.27;;;14.90;50.40;;;;;;5071115;28;20457;-64
2023/05/18 08:05:12;;;;;;;7.57;2.97;;;14.90;50.60;;;;;;5072191;28;20451;-64
2023/05/18 08:07:39;;;;;;;12.53;3.43;;;14.80;52.00;;;;;;5072225;28;20473;-64
2023/05/18 08:10:07;;;;;;;8.10;3.90;;;14.90;48.50;;;;;;5072668;28;20489;-64
2023/05/18 08:12:35;;;;;;;8.87;3.20;;;15.40;43.90;;;;;;5072098;28;20462;-64
2023/05/18 08:15:02;;;;;;;8.60;3.10;;;15.90;47.50;;;;;;5072262;28;20951;-64
2023/05/18 08:17:29;;;;;;;13.40;3.73;;;15.90;40.50;;;;;;5071366;28;20489;-64
2023/05/18 08:19:55;;;;;;;8.20;3.15;;;16.30;40.90;;;;;;5072084;28;20937;-64
2023/05/18 08:22:22;;;;;;;11.70;3.57;;;16.20;33.30;;;;;;5072009;28;20192;-64
2023/05/18 08:24:49;;;;;;;14.03;3.20;;;16.50;32.10;;;;;;5071961;28;20479;-64
2023/05/18 08:27:17;;;;;;;8.90;3.17;;;16.50;32.00;;;;;;5072209;28;20453;-64
2023/05/18 08:29:45;;;;;;;14.13;3.50;;;16.80;33.00;;;;;;5072310;28;20486;-64
2023/05/18 08:32:12;;;;;;;9.70;3.30;;;17.10;30.60;;;;;;5071774;28;20483;-64
2023/05/18 08:34:38;;;;;;;12.00;3.20;;;17.50;27.80;;;;;;5072041;28;20462;-64
2023/05/18 08:37:06;;;;;;;6.80;2.87;;;17.70;25.40;;;;;;5071942;28;20453;-64
2023/05/18 08:39:33;;;;;;;8.50;3.03;;;18.30;29.50;;;;;;5071835;28;20447;-64
2023/05/18 08:42:03;;;;;;;11.40;3.27;;;18.10;23.00;;;;;;5071768;28;20957;-64
2023/05/18 08:44:38;;;;;;;14.47;3.80;;;17.80;24.30;;;;;;5072090;28;20457;-64
2023/05/18 08:47:09;;;;;;;9.02;3.67;;;18.00;27.60;;;;;;5071842;28;20454;-64
2023/05/18 08:49:37;;;;;;;8.80;3.10;;;17.60;21.30;;;;;;5071734;28;20218;-64
2023/05/18 08:52:05;;;;;;;11.30;2.90;;;18.00;24.50;;;;;;5071426;28;20469;-64
2023/05/18 08:54:34;;;;;;;8.03;2.93;;;17.70;23.30;;;;;;5071816;28;20456;-64
2023/05/18 08:57:03;;;;;;;15.07;3.42;;;17.70;22.10;;;;;;5071825;28;20481;-64
2023/05/18 08:59:33;;;;;;;8.50;2.43;;;17.50;22.00;;;;;;5072302;28;20218;-64
2023/05/18 09:02:00;;;;;;;12.93;3.80;;;18.10;22.00;;;;;;5071553;28;20458;-64
2023/05/18 09:04:28;;;;;;;10.70;3.40;;;17.50;21.90;;;;;;5071401;28;20827;-64
2023/05/18 09:06:58;;;;;;;6.50;2.60;;;16.80;20.70;;;;;;5071510;28;20455;-64
2023/05/18 09:09:26;;;;;;;7.22;2.72;;;17.60;18.00;;;;;;5071580;28;20570;-64
2023/05/18 09:11:54;;;;;;;9.00;3.27;;;18.00;18.30;;;;;;5071516;28;20198;-64
2023/05/18 09:14:24;;;;;;;6.50;3.00;;;17.90;18.20;;;;;;5071787;28;20463;-64
2023/05/18 09:16:51;;;;;;;11.43;3.43;;;18.30;17.80;;;;;;5071473;28;20505;-64
2023/05/18 09:19:18;;;;;;;15.70;3.57;;;18.60;16.40;;;;;;5071398;28;20934;-64
2023/05/18 09:21:47;;;;;;;8.77;3.30;;;18.80;14.10;;;;;;5071363;28;20464;-64
2023/05/18 09:24:14;;;;;;;9.20;3.10;;;19.30;11.70;;;;;;5071696;28;20813;-64
2023/05/18 09:26:40;;;;;;;10.87;3.00;;;19.50;14.00;;;;;;5071551;28;20455;-64
2023/05/18 09:29:16;;;;;;;11.90;3.73;;;18.70;13.80;;;;;;5074672;28;20474;-64
2023/05/18 09:31:42;;;;;;;14.93;3.47;;;18.80;11.40;;;;;;5074847;28;20456;-65
2023/05/18 09:34:10;;;;;;;11.40;3.33;;;19.30;11.70;;;;;;5074912;28;20463;-64
2023/05/18 09:36:36;;;;;;;8.90;3.50;;;19.70;8.60;;;;;;5075001;28;20453;-64
2023/05/18 09:39:10;;;;;;;9.98;3.70;;;19.80;8.80;;;;;;5074851;28;20457;-64
2023/05/18 09:41:38;;;;;;;13.83;4.13;;;19.50;10.20;;;;;;5074829;28;20201;-64
2023/05/18 09:44:08;;;;;;;10.60;2.93;;;19.00;15.70;;;;;;5074528;28;20456;-64
2023/05/18 09:46:35;;;;;;;8.68;3.28;;;19.50;8.80;;;;;;5074901;28;20457;-64
2023/05/18 09:49:04;;;;;;;9.47;3.53;;;19.40;9.30;;;;;;5074785;28;20240;-64
2023/05/18 09:51:31;;;;;;;13.67;3.63;;;19.50;6.10;;;;;;5074422;28;20965;-64
2023/05/18 09:53:58;;;;;;;11.13;2.80;;;19.70;12.00;;;;;;5074569;28;20539;-64
2023/05/18 09:56:27;;;;;;;8.43;2.97;;;19.60;11.90;;;;;;5074488;28;20453;-64
2023/05/18 09:58:54;;;;;;;13.70;4.00;;;19.70;11.00;;;;;;5074657;28;20458;-64
2023/05/18 10:01:21;;;;;;;8.60;2.70;;;19.00;10.50;;;;;;5074468;28;20458;-64
2023/05/18 10:03:48;;;;;;;7.13;2.67;;;19.50;10.80;;;;;;5074667;28;20514;-64
2023/05/18 10:06:18;;;;;;;8.63;4.30;;;19.20;10.50;;;;;;5074460;28;20459;-64
2023/05/18 10:08:45;;;;;;;11.50;3.63;;;18.90;9.80;;;;;;5074316;28;20567;-64
2023/05/18 10:11:12;;;;;;;8.43;3.43;;;19.00;9.20;;;;;;5073953;28;20815;-64
2023/05/18 10:13:43;;;;;;;11.07;2.97;;;18.90;10.60;;;;;;5074459;28;20461;-64
2023/05/18 10:16:10;;;;;;;7.50;3.07;;;19.10;11.60;;;;;;5074128;28;20971;-64
2023/05/18 10:18:38;;;;;;;8.32;3.22;;;19.20;11.60;;;;;;5074027;28;20447;-64
2023/05/18 10:21:06;;;;;;;11.17;3.10;;;19.90;10.00;;;;;;5074037;28;20210;-64
2023/05/18 10:23:36;;;;;;;8.90;3.00;;;20.40;7.60;;;;;;5074099;28;20453;-64
2023/05/18 10:26:06;;;;;;;11.63;3.33;;;21.00;5.30;;;;;;5074445;28;20457;-64
2023/05/18 10:28:38;;;;;;;13.50;3.70;;;20.90;7.60;;;;;;5074050;28;20524;-64
2023/05/18 10:31:07;;;;;;;13.80;3.40;;;20.40;2.40;;;;;;5073668;28;20460;-64
2023/05/18 10:33:36;;;;;;;9.73;3.67;;;20.20;2.30;;;;;;5073743;28;20463;-64
2023/05/18 10:36:04;;;;;;;7.70;2.60;;;19.80;14.40;;;;;;5073638;28;20454;-64
2023/05/18 10:38:33;;;;;;;10.57;3.43;;;19.20;8.10;;;;;;5073637;28;20485;-64
2023/05/18 10:41:01;;;;;;;14.40;3.27;;;18.90;9.30;;;;;;5073101;28;20461;-64
2023/05/18 10:43:28;;;;;;;8.57;2.83;;;18.40;11.10;;;;;;5073827;28;20796;-64
2023/05/18 10:45:57;;;;;;;9.00;2.80;;;18.20;12.60;;;;;;5073685;28;20551;-64
2023/05/18 10:48:25;;;;;;;9.27;3.10;;;18.70;11.30;;;;;;5073438;28;20833;-64
2023/05/18 10:50:54;;;;;;;11.30;3.90;;;19.70;5.50;;;;;;5072000;28;20809;-64
2023/05/18 10:53:22;;;;;;;10.10;2.80;;;20.20;12.30;;;;;;5073840;28;20285;-64
2023/05/18 10:55:50;;;;;;;10.53;3.13;;;19.70;10.10;;;;;;5073479;28;20464;-64
2023/05/18 10:58:19;;;;;;;8.60;3.10;;;20.90;5.10;;;;;;5073464;28;20595;-65
2023/05/18 11:00:50;;;;;;;16.93;3.53;;;20.70;2.50;;;;;;5072498;28;20454;-64
2023/05/18 11:03:18;;;;;;;10.57;3.40;;;20.10;3.00;;;;;;5072786;28;20847;-65
2023/05/18 11:05:49;;;;;;;10.63;4.23;;;20.30;2.70;;;;;;5073235;28;20196;-64
2023/05/18 11:08:26;;;;;;;12.57;3.53;;;21.50;9.20;;;;;;5073412;28;20469;-64
2023/05/18 11:11:00;;;;;;;11.23;3.70;;;21.00;6.70;;;;;;5073214;28;20516;-65
2023/05/18 11:13:29;;;;;;;11.15;2.85;;;21.00;5.30;;;;;;5073186;28;20479;-65
2023/05/18 11:16:04;;;;;;;9.40;3.28;;;19.60;9.30;;;;;;5073382;28;20679;-65
2023/05/18 11:18:40;;;;;;;9.77;3.43;;;19.60;11.90;;;;;;5073124;28;20202;-64
2023/05/18 11:21:30;;;;;;;9.80;3.10;;;19.70;8.70;;;;;;5072854;28;20879;-64
2023/05/18 11:24:21;;;;;;;11.77;2.73;;;20.40;4.90;;;;;;5071590;28;20452;-64
2023/05/18 11:26:49;;;;;;;12.20;3.10;;;20.70;5.00;;;;;;5071527;28;20461;-64
2023/05/18 11:29:17;;;;;;;15.20;3.83;;;22.00;1.50;;;;;;5072558;28;20227;-65
2023/05/18 11:31:44;;;;;;;10.87;3.03;;;21.70;1.00;;;;;;5071928;28;20504;-64
2023/05/18 11:34:46;;;;;;;16.20;3.33;;;22.40;1.00;;;;;;5072205;28;20467;-64
2023/05/18 11:37:15;;;;;;;9.43;3.23;;;22.50;1.00;;;;;;5072385;28;20457;-64
2023/05/18 11:39:53;;;;;;;10.00;3.70;;;22.30;1.00;;;;;;5072376;28;20461;-64
2023/05/18 11:42:20;;;;;;;10.43;3.23;;;21.50;1.00;;;;;;5072141;28;20450;-65
2023/05/18 11:44:52;;;;;;;8.90;3.30;;;21.50;1.00;;;;;;5072355;28;20450;-65
2023/05/18 11:47:20;;;;;;;11.63;3.30;;;21.20;1.00;;;;;;5072301;28;20454;-65
2023/05/18 11:49:48;;;;;;;7.93;3.20;;;21.40;1.80;;;;;;5072067;28;20478;-65
2023/05/18 11:52:18;;;;;;;12.90;3.65;;;21.00;1.80;;;;;;5072040;28;20464;-65
2023/05/18 11:54:46;;;;;;;10.87;3.10;;;21.20;2.70;;;;;;5072243;28;20200;-65
2023/05/18 11:57:15;;;;;;;11.50;4.00;;;20.00;2.10;;;;;;5072164;28;20462;-64
2023/05/18 11:59:43;;;;;;;14.93;3.77;;;20.60;3.80;;;;;;5072313;28;20474;-64
2023/05/18 12:02:12;;;;;;;17.30;5.10;;;20.70;2.40;;;;;;5072142;28;20454;-65
2023/05/18 12:04:46;;;;;;;10.80;4.33;;;20.90;3.70;;;;;;5072031;28;20453;-65
2023/05/18 12:07:14;;;;;;;10.87;3.47;;;21.00;1.00;;;;;;5071963;28;20536;-65
2023/05/18 12:09:44;;;;;;;13.63;3.63;;;20.90;1.90;;;;;;5069996;28;20477;-65
2023/05/18 12:12:12;;;;;;;11.00;4.00;;;21.20;1.00;;;;;;5071550;28;20431;-65
2023/05/18 12:14:41;;;;;;;9.83;3.17;;;20.90;1.10;;;;;;5071874;28;20460;-65
2023/05/18 12:17:09;;;;;;;7.07;2.77;;;21.10;6.90;;;;;;5071501;28;20450;-65
2023/05/18 12:19:43;;;;;;;14.70;4.50;;;20.60;1.00;;;;;;5071722;28;20515;-64
2023/05/18 12:22:11;;;;;;;5.97;2.73;;;22.30;1.00;;;;;;5071570;28;20462;-64
2023/05/18 12:24:38;;;;;;;10.10;3.27;;;22.10;1.00;;;;;;5071560;28;20455;-64
2023/05/18 12:27:08;;;;;;;11.87;3.73;;;22.60;1.00;;;;;;5071692;28;20819;-65
2023/05/18 12:29:39;;;;;;;12.90;3.90;;;22.60;1.00;;;;;;5071335;28;21015;-64
2023/05/18 12:32:08;;;;;;;6.40;3.00;;;22.70;1.00;;;;;;5071330;28;20454;-65
2023/05/18 12:34:35;;;;;;;16.53;3.67;;;22.40;1.00;;;;;;5071625;28;20472;-65
2023/05/18 12:37:02;;;;;;;9.48;3.60;;;22.20;1.00;;;;;;5071101;28;20458;-65
2023/05/18 12:39:29;;;;;;;10.13;4.00;;;22.20;1.00;;;;;;5071216;28;20938;-65
2023/05/18 12:42:10;;;;;;;13.50;4.17;;;21.70;1.00;;;;;;5071321;28;20971;-64
2023/05/18 12:44:37;;;;;;;11.80;3.30;;;22.50;1.00;;;;;;5070885;28;20793;-65